sensor_id;sensor_type;location;lat;lon;timestamp;pressure;altitude;pressure_sealevel;temperature;humidity
58769;BME280;44536;47.474;19.056;2023-04-20T00:00:10;100383.37;;;8.63;96.06
58769;BME280;44536;47.474;19.056;2023-04-20T00:03:13;100383.16;;;8.66;95.90
58769;BME280;44536;47.474;19.056;2023-04-20T00:06:16;100386.66;;;8.67;95.72
58769;BME280;44536;47.474;19.056;2023-04-20T00:09:19;100386.47;;;8.82;94.45
58769;BME280;44536;47.474;19.056;2023-04-20T00:12:21;100382.00;;;8.70;95.56
58769;BME280;44536;47.474;19.056;2023-04-20T00:15:23;100377.88;;;8.66;95.93
58769;BME280;44536;47.474;19.056;2023-04-20T00:18:26;100380.28;;;8.56;96.12
58769;BME280;44536;47.474;19.056;2023-04-20T00:21:28;100381.16;;;8.70;95.68
58769;BME280;44536;47.474;19.056;2023-04-20T00:24:30;100386.75;;;8.65;96.30
58769;BME280;44536;47.474;19.056;2023-04-20T00:27:33;100381.22;;;8.55;96.28
58769;BME280;44536;47.474;19.056;2023-04-20T00:30:35;100379.75;;;8.51;96.03
58769;BME280;44536;47.474;19.056;2023-04-20T00:33:38;100377.62;;;8.56;95.83
58769;BME280;44536;47.474;19.056;2023-04-20T00:36:41;100372.56;;;8.53;96.12
58769;BME280;44536;47.474;19.056;2023-04-20T00:39:44;100374.34;;;8.53;96.30
58769;BME280;44536;47.474;19.056;2023-04-20T00:42:46;100377.75;;;8.55;95.87
58769;BME280;44536;47.474;19.056;2023-04-20T00:45:50;100380.38;;;8.55;95.25
58769;BME280;44536;47.474;19.056;2023-04-20T00:48:55;100371.50;;;8.56;95.38
58769;BME280;44536;47.474;19.056;2023-04-20T00:51:58;100367.47;;;8.50;96.22
58769;BME280;44536;47.474;19.056;2023-04-20T00:55:02;100369.47;;;8.47;97.00
58769;BME280;44536;47.474;19.056;2023-04-20T00:58:05;100367.25;;;8.41;96.62
58769;BME280;44536;47.474;19.056;2023-04-20T01:01:09;100373.47;;;8.40;96.30
58769;BME280;44536;47.474;19.056;2023-04-20T01:04:12;100367.56;;;8.36;97.19
58769;BME280;44536;47.474;19.056;2023-04-20T01:07:15;100365.13;;;8.33;96.73
58769;BME280;44536;47.474;19.056;2023-04-20T01:10:17;100365.13;;;8.33;96.79
58769;BME280;44536;47.474;19.056;2023-04-20T01:13:20;100366.37;;;8.27;97.17
58769;BME280;44536;47.474;19.056;2023-04-20T01:16:22;100359.69;;;8.22;97.33
58769;BME280;44536;47.474;19.056;2023-04-20T01:19:25;100369.06;;;8.13;97.79
58769;BME280;44536;47.474;19.056;2023-04-20T01:22:28;100371.25;;;8.34;97.46
58769;BME280;44536;47.474;19.056;2023-04-20T01:25:30;100359.50;;;8.25;96.42
58769;BME280;44536;47.474;19.056;2023-04-20T01:28:32;100360.75;;;8.19;97.13
58769;BME280;44536;47.474;19.056;2023-04-20T01:31:35;100363.19;;;8.22;96.96
58769;BME280;44536;47.474;19.056;2023-04-20T01:34:38;100363.13;;;8.10;97.56
58769;BME280;44536;47.474;19.056;2023-04-20T01:37:41;100364.47;;;8.03;98.72
58769;BME280;44536;47.474;19.056;2023-04-20T01:40:43;100366.56;;;7.97;99.06
58769;BME280;44536;47.474;19.056;2023-04-20T01:43:46;100366.13;;;7.91;100.00
58769;BME280;44536;47.474;19.056;2023-04-20T01:46:48;100369.16;;;7.85;100.00
58769;BME280;44536;47.474;19.056;2023-04-20T01:49:50;100367.78;;;7.79;100.00
58769;BME280;44536;47.474;19.056;2023-04-20T01:52:53;100366.94;;;7.79;100.00
58769;BME280;44536;47.474;19.056;2023-04-20T01:55:55;100364.69;;;7.73;100.00
58769;BME280;44536;47.474;19.056;2023-04-20T01:58:57;100363.94;;;7.71;100.00
58769;BME280;44536;47.474;19.056;2023-04-20T02:02:01;100365.63;;;7.72;100.00
58769;BME280;44536;47.474;19.056;2023-04-20T02:05:07;100367.34;;;7.73;100.00
58769;BME280;44536;47.474;19.056;2023-04-20T02:08:09;100368.28;;;7.72;100.00
58769;BME280;44536;47.474;19.056;2023-04-20T02:11:13;100376.59;;;7.66;100.00
58769;BME280;44536;47.474;19.056;2023-04-20T02:14:15;100363.69;;;7.61;100.00
58769;BME280;44536;47.474;19.056;2023-04-20T02:17:18;100369.41;;;7.68;100.00
58769;BME280;44536;47.474;19.056;2023-04-20T02:20:21;100369.06;;;7.59;100.00
58769;BME280;44536;47.474;19.056;2023-04-20T02:23:23;100370.38;;;7.52;100.00
58769;BME280;44536;47.474;19.056;2023-04-20T02:26:26;100373.88;;;7.53;100.00
58769;BME280;44536;47.474;19.056;2023-04-20T02:29:28;100372.47;;;7.47;100.00
58769;BME280;44536;47.474;19.056;2023-04-20T02:32:31;100366.81;;;7.39;100.00
58769;BME280;44536;47.474;19.056;2023-04-20T02:35:34;100359.28;;;7.33;100.00
58769;BME280;44536;47.474;19.056;2023-04-20T02:38:37;100370.13;;;7.28;100.00
58769;BME280;44536;47.474;19.056;2023-04-20T02:41:41;100372.97;;;7.25;100.00
58769;BME280;44536;47.474;19.056;2023-04-20T02:44:44;100371.66;;;7.18;100.00
58769;BME280;44536;47.474;19.056;2023-04-20T02:47:48;100372.13;;;7.11;100.00
58769;BME280;44536;47.474;19.056;2023-04-20T02:50:54;100379.28;;;7.09;100.00
58769;BME280;44536;47.474;19.056;2023-04-20T02:53:56;100382.38;;;7.01;100.00
58769;BME280;44536;47.474;19.056;2023-04-20T02:57:00;100385.22;;;6.98;100.00
58769;BME280;44536;47.474;19.056;2023-04-20T03:00:03;100388.41;;;7.03;100.00
58769;BME280;44536;47.474;19.056;2023-04-20T03:03:08;100385.87;;;7.02;100.00
58769;BME280;44536;47.474;19.056;2023-04-20T03:06:10;100391.81;;;7.05;100.00
58769;BME280;44536;47.474;19.056;2023-04-20T03:09:13;100389.44;;;7.01;100.00
58769;BME280;44536;47.474;19.056;2023-04-20T03:12:17;100382.97;;;7.06;100.00
58769;BME280;44536;47.474;19.056;2023-04-20T03:15:21;100388.12;;;7.08;100.00
58769;BME280;44536;47.474;19.056;2023-04-20T03:18:24;100392.09;;;7.01;100.00
58769;BME280;44536;47.474;19.056;2023-04-20T03:21:27;100387.94;;;6.96;100.00
58769;BME280;44536;47.474;19.056;2023-04-20T03:24:30;100393.22;;;6.96;100.00
58769;BME280;44536;47.474;19.056;2023-04-20T03:27:33;100379.28;;;6.94;100.00
58769;BME280;44536;47.474;19.056;2023-04-20T03:30:37;100383.03;;;6.90;100.00
58769;BME280;44536;47.474;19.056;2023-04-20T03:33:41;100380.41;;;6.90;100.00
58769;BME280;44536;47.474;19.056;2023-04-20T03:36:43;100387.94;;;6.96;100.00
58769;BME280;44536;47.474;19.056;2023-04-20T03:39:46;100382.47;;;7.00;100.00
58769;BME280;44536;47.474;19.056;2023-04-20T03:42:48;100381.72;;;6.97;100.00
58769;BME280;44536;47.474;19.056;2023-04-20T03:45:51;100388.31;;;7.05;100.00
58769;BME280;44536;47.474;19.056;2023-04-20T03:48:53;100384.28;;;7.13;100.00
58769;BME280;44536;47.474;19.056;2023-04-20T03:51:56;100399.78;;;7.32;100.00
58769;BME280;44536;47.474;19.056;2023-04-20T03:54:58;100404.50;;;7.41;100.00
58769;BME280;44536;47.474;19.056;2023-04-20T03:58:01;100393.75;;;7.58;100.00
58769;BME280;44536;47.474;19.056;2023-04-20T04:01:08;100400.09;;;7.83;100.00
58769;BME280;44536;47.474;19.056;2023-04-20T04:04:11;100404.62;;;8.08;100.00
58769;BME280;44536;47.474;19.056;2023-04-20T04:07:14;100406.13;;;8.12;100.00
58769;BME280;44536;47.474;19.056;2023-04-20T04:10:17;100399.75;;;8.28;100.00
58769;BME280;44536;47.474;19.056;2023-04-20T04:13:22;100390.63;;;8.47;100.00
58769;BME280;44536;47.474;19.056;2023-04-20T04:16:26;100402.72;;;8.63;100.00
58769;BME280;44536;47.474;19.056;2023-04-20T04:19:28;100403.78;;;8.74;98.39
58769;BME280;44536;47.474;19.056;2023-04-20T04:22:30;100409.06;;;8.86;98.61
58769;BME280;44536;47.474;19.056;2023-04-20T04:25:37;100408.88;;;9.02;97.20
58769;BME280;44536;47.474;19.056;2023-04-20T04:28:40;100399.56;;;9.09;95.40
58769;BME280;44536;47.474;19.056;2023-04-20T04:31:44;100411.62;;;9.26;94.53
58769;BME280;44536;47.474;19.056;2023-04-20T04:34:47;100405.69;;;9.35;93.76
58769;BME280;44536;47.474;19.056;2023-04-20T04:37:49;100408.28;;;9.60;93.14
58769;BME280;44536;47.474;19.056;2023-04-20T04:40:54;100406.78;;;9.69;91.21
58769;BME280;44536;47.474;19.056;2023-04-20T04:43:57;100406.75;;;9.82;90.33
58769;BME280;44536;47.474;19.056;2023-04-20T04:47:01;100406.75;;;9.82;89.80
58769;BME280;44536;47.474;19.056;2023-04-20T04:50:05;100409.28;;;10.07;88.88
58769;BME280;44536;47.474;19.056;2023-04-20T04:53:08;100411.38;;;10.27;88.14
58769;BME280;44536;47.474;19.056;2023-04-20T04:56:10;100409.50;;;10.52;86.07
58769;BME280;44536;47.474;19.056;2023-04-20T04:59:14;100419.09;;;11.23;82.38
58769;BME280;44536;47.474;19.056;2023-04-20T05:02:17;100409.91;;;11.60;80.63
58769;BME280;44536;47.474;19.056;2023-04-20T05:05:20;100415.72;;;11.77;79.60
58769;BME280;44536;47.474;19.056;2023-04-20T05:08:22;100414.88;;;11.87;78.81
58769;BME280;44536;47.474;19.056;2023-04-20T05:11:28;100429.59;;;12.35;76.38
58769;BME280;44536;47.474;19.056;2023-04-20T05:14:31;100423.84;;;13.13;71.92
58769;BME280;44536;47.474;19.056;2023-04-20T05:17:33;100429.56;;;14.00;67.70
58769;BME280;44536;47.474;19.056;2023-04-20T05:20:36;100427.94;;;13.78;67.76
58769;BME280;44536;47.474;19.056;2023-04-20T05:23:39;100433.34;;;14.07;66.79
58769;BME280;44536;47.474;19.056;2023-04-20T05:26:41;100433.44;;;15.40;60.62
58769;BME280;44536;47.474;19.056;2023-04-20T05:29:43;100433.09;;;16.53;56.19
58769;BME280;44536;47.474;19.056;2023-04-20T05:32:46;100435.94;;;17.13;53.50
58769;BME280;44536;47.474;19.056;2023-04-20T05:35:56;100439.44;;;16.87;53.51
58769;BME280;44536;47.474;19.056;2023-04-20T05:38:58;100440.16;;;16.27;55.58
58769;BME280;44536;47.474;19.056;2023-04-20T05:42:01;100434.59;;;17.17;52.33
58769;BME280;44536;47.474;19.056;2023-04-20T05:45:04;100440.22;;;18.58;49.51
58769;BME280;44536;47.474;19.056;2023-04-20T05:48:09;100437.22;;;19.81;44.68
58769;BME280;44536;47.474;19.056;2023-04-20T05:51:12;100432.38;;;20.08;42.78
58769;BME280;44536;47.474;19.056;2023-04-20T05:54:14;100445.53;;;21.02;41.48
58769;BME280;44536;47.474;19.056;2023-04-20T05:57:17;100445.12;;;21.87;39.19
58769;BME280;44536;47.474;19.056;2023-04-20T06:00:20;100439.53;;;21.15;40.07
58769;BME280;44536;47.474;19.056;2023-04-20T06:03:25;100446.06;;;22.45;37.30
58769;BME280;44536;47.474;19.056;2023-04-20T06:06:27;100444.84;;;23.39;35.33
58769;BME280;44536;47.474;19.056;2023-04-20T06:09:30;100452.50;;;22.44;36.65
58769;BME280;44536;47.474;19.056;2023-04-20T06:12:32;100448.66;;;23.52;35.06
58769;BME280;44536;47.474;19.056;2023-04-20T06:15:35;100450.69;;;23.71;34.69
58769;BME280;44536;47.474;19.056;2023-04-20T06:18:38;100448.56;;;24.07;33.86
58769;BME280;44536;47.474;19.056;2023-04-20T06:21:40;100454.75;;;23.88;33.89
58769;BME280;44536;47.474;19.056;2023-04-20T06:24:42;100456.59;;;23.81;34.28
58769;BME280;44536;47.474;19.056;2023-04-20T06:27:45;100457.56;;;25.02;32.55
58769;BME280;44536;47.474;19.056;2023-04-20T06:30:48;100455.06;;;24.20;33.12
58769;BME280;44536;47.474;19.056;2023-04-20T06:33:54;100465.16;;;26.80;29.74
58769;BME280;44536;47.474;19.056;2023-04-20T06:36:57;100455.44;;;26.21;30.46
58769;BME280;44536;47.474;19.056;2023-04-20T06:39:59;100454.94;;;26.44;29.18
58769;BME280;44536;47.474;19.056;2023-04-20T06:43:02;100455.47;;;26.15;29.34
58769;BME280;44536;47.474;19.056;2023-04-20T06:46:04;100455.44;;;26.97;29.58
58769;BME280;44536;47.474;19.056;2023-04-20T06:49:07;100462.72;;;27.72;28.18
58769;BME280;44536;47.474;19.056;2023-04-20T06:52:09;100460.94;;;28.32;27.06
58769;BME280;44536;47.474;19.056;2023-04-20T06:55:11;100456.09;;;28.16;26.46
58769;BME280;44536;47.474;19.056;2023-04-20T06:58:15;100459.94;;;26.47;28.38
58769;BME280;44536;47.474;19.056;2023-04-20T07:01:17;100453.09;;;27.87;27.14
58769;BME280;44536;47.474;19.056;2023-04-20T07:04:20;100454.75;;;27.70;26.52
58769;BME280;44536;47.474;19.056;2023-04-20T07:07:22;100457.94;;;28.82;25.23
58769;BME280;44536;47.474;19.056;2023-04-20T07:10:25;100458.09;;;27.72;27.14
58769;BME280;44536;47.474;19.056;2023-04-20T07:13:30;100458.34;;;26.64;27.49
58769;BME280;44536;47.474;19.056;2023-04-20T07:16:35;100461.03;;;27.27;27.54
58769;BME280;44536;47.474;19.056;2023-04-20T07:19:37;100458.56;;;27.44;26.54
58769;BME280;44536;47.474;19.056;2023-04-20T07:22:40;100461.50;;;28.04;26.48
58769;BME280;44536;47.474;19.056;2023-04-20T07:25:42;100464.22;;;26.61;27.52
58769;BME280;44536;47.474;19.056;2023-04-20T07:28:45;100453.25;;;25.98;28.47
58769;BME280;44536;47.474;19.056;2023-04-20T07:31:47;100455.81;;;24.00;31.92
58769;BME280;44536;47.474;19.056;2023-04-20T07:34:49;100463.78;;;22.90;33.21
58769;BME280;44536;47.474;19.056;2023-04-20T07:37:52;100457.16;;;22.71;33.53
58769;BME280;44536;47.474;19.056;2023-04-20T07:40:54;100468.38;;;23.67;31.97
58769;BME280;44536;47.474;19.056;2023-04-20T07:43:57;100464.56;;;23.61;31.99
58769;BME280;44536;47.474;19.056;2023-04-20T07:46:59;100458.06;;;22.21;33.46
58769;BME280;44536;47.474;19.056;2023-04-20T07:50:05;100459.12;;;21.46;35.03
58769;BME280;44536;47.474;19.056;2023-04-20T07:53:07;100463.91;;;20.61;36.92
58769;BME280;44536;47.474;19.056;2023-04-20T07:56:10;100465.38;;;19.38;37.64
58769;BME280;44536;47.474;19.056;2023-04-20T07:59:12;100465.59;;;18.72;39.49
58769;BME280;44536;47.474;19.056;2023-04-20T08:02:15;100468.03;;;18.33;41.66
58769;BME280;44536;47.474;19.056;2023-04-20T08:05:20;100456.97;;;17.85;43.86
58769;BME280;44536;47.474;19.056;2023-04-20T08:08:22;100462.34;;;17.85;42.65
58769;BME280;44536;47.474;19.056;2023-04-20T08:11:25;100459.78;;;17.50;43.86
58769;BME280;44536;47.474;19.056;2023-04-20T08:14:28;100460.09;;;17.21;45.08
58769;BME280;44536;47.474;19.056;2023-04-20T08:17:33;100457.87;;;17.16;42.95
58769;BME280;44536;47.474;19.056;2023-04-20T08:20:35;100454.88;;;17.19;44.66
58769;BME280;44536;47.474;19.056;2023-04-20T08:23:38;100458.47;;;16.84;44.33
58769;BME280;44536;47.474;19.056;2023-04-20T08:26:42;100462.31;;;16.82;45.13
58769;BME280;44536;47.474;19.056;2023-04-20T08:29:45;100453.94;;;17.03;43.09
58769;BME280;44536;47.474;19.056;2023-04-20T08:32:47;100460.03;;;16.69;44.67
58769;BME280;44536;47.474;19.056;2023-04-20T08:35:50;100456.81;;;16.83;45.13
58769;BME280;44536;47.474;19.056;2023-04-20T08:38:56;100451.06;;;16.96;45.83
58769;BME280;44536;47.474;19.056;2023-04-20T08:42:01;100457.94;;;16.81;45.41
58769;BME280;44536;47.474;19.056;2023-04-20T08:45:04;100454.09;;;17.01;44.11
58769;BME280;44536;47.474;19.056;2023-04-20T08:48:08;100449.84;;;16.55;45.07
58769;BME280;44536;47.474;19.056;2023-04-20T08:51:13;100448.78;;;16.66;45.66
58769;BME280;44536;47.474;19.056;2023-04-20T08:54:16;100451.22;;;16.77;45.90
58769;BME280;44536;47.474;19.056;2023-04-20T08:57:18;100448.16;;;16.90;46.13
58769;BME280;44536;47.474;19.056;2023-04-20T09:00:21;100451.28;;;17.03;44.34
58769;BME280;44536;47.474;19.056;2023-04-20T09:03:41;100451.06;;;17.22;44.78
58769;BME280;44536;47.474;19.056;2023-04-20T09:06:48;100458.09;;;16.97;44.70
58769;BME280;44536;47.474;19.056;2023-04-20T09:09:58;100453.34;;;17.09;44.21
58769;BME280;44536;47.474;19.056;2023-04-20T09:13:01;100442.03;;;17.49;42.82
58769;BME280;44536;47.474;19.056;2023-04-20T09:16:11;100443.47;;;17.69;42.17
58769;BME280;44536;47.474;19.056;2023-04-20T09:19:14;100446.25;;;18.44;42.45
58769;BME280;44536;47.474;19.056;2023-04-20T09:22:17;100447.13;;;19.17;39.87
58769;BME280;44536;47.474;19.056;2023-04-20T09:25:31;100443.50;;;19.66;38.69
58769;BME280;44536;47.474;19.056;2023-04-20T09:28:36;100444.50;;;19.73;38.23
58769;BME280;44536;47.474;19.056;2023-04-20T09:31:43;100451.63;;;19.33;37.58
58769;BME280;44536;47.474;19.056;2023-04-20T09:34:48;100446.41;;;19.24;38.48
58769;BME280;44536;47.474;19.056;2023-04-20T09:37:51;100443.44;;;19.10;39.16
58769;BME280;44536;47.474;19.056;2023-04-20T09:40:53;100441.25;;;19.06;39.20
58769;BME280;44536;47.474;19.056;2023-04-20T09:43:56;100440.84;;;19.33;37.87
58769;BME280;44536;47.474;19.056;2023-04-20T09:46:59;100443.59;;;19.09;37.31
58769;BME280;44536;47.474;19.056;2023-04-20T09:50:03;100440.25;;;18.91;38.44
58769;BME280;44536;47.474;19.056;2023-04-20T09:53:25;100435.72;;;19.15;38.99
58769;BME280;44536;47.474;19.056;2023-04-20T09:56:28;100425.16;;;21.67;35.79
58769;BME280;44536;47.474;19.056;2023-04-20T09:59:32;100434.47;;;23.77;31.10
58769;BME280;44536;47.474;19.056;2023-04-20T10:02:34;100432.91;;;23.27;30.50
58769;BME280;44536;47.474;19.056;2023-04-20T10:05:37;100428.19;;;23.42;32.34
58769;BME280;44536;47.474;19.056;2023-04-20T10:08:40;100424.75;;;23.90;31.70
58769;BME280;44536;47.474;19.056;2023-04-20T10:11:43;100422.06;;;24.84;29.49
58769;BME280;44536;47.474;19.056;2023-04-20T10:14:55;100413.72;;;24.72;30.09
58769;BME280;44536;47.474;19.056;2023-04-20T10:17:59;100410.78;;;25.46;28.50
58769;BME280;44536;47.474;19.056;2023-04-20T10:21:06;100416.66;;;24.90;29.29
58769;BME280;44536;47.474;19.056;2023-04-20T10:24:12;100426.63;;;26.14;27.15
58769;BME280;44536;47.474;19.056;2023-04-20T10:27:15;100414.25;;;25.80;27.68
58769;BME280;44536;47.474;19.056;2023-04-20T10:30:18;100413.37;;;23.04;31.73
58769;BME280;44536;47.474;19.056;2023-04-20T10:33:21;100410.09;;;22.23;32.87
58769;BME280;44536;47.474;19.056;2023-04-20T10:36:29;100413.97;;;22.57;32.29
58769;BME280;44536;47.474;19.056;2023-04-20T10:39:32;100407.84;;;21.32;35.12
58769;BME280;44536;47.474;19.056;2023-04-20T10:42:42;100407.06;;;20.25;36.54
58769;BME280;44536;47.474;19.056;2023-04-20T10:45:44;100402.78;;;20.08;38.03
58769;BME280;44536;47.474;19.056;2023-04-20T10:48:54;100389.44;;;21.65;34.23
58769;BME280;44536;47.474;19.056;2023-04-20T10:51:57;100388.63;;;23.69;31.86
58769;BME280;44536;47.474;19.056;2023-04-20T10:54:59;100394.28;;;24.55;30.16
58769;BME280;44536;47.474;19.056;2023-04-20T10:58:02;100392.78;;;26.10;29.88
58769;BME280;44536;47.474;19.056;2023-04-20T11:01:04;100378.03;;;26.37;26.71
58769;BME280;44536;47.474;19.056;2023-04-20T11:04:08;100374.97;;;26.52;27.84
58769;BME280;44536;47.474;19.056;2023-04-20T11:07:13;100379.19;;;25.65;27.01
58769;BME280;44536;47.474;19.056;2023-04-20T11:10:16;100382.09;;;22.95;31.16
58769;BME280;44536;47.474;19.056;2023-04-20T11:13:22;100377.72;;;21.94;33.99
58769;BME280;44536;47.474;19.056;2023-04-20T11:16:26;100375.50;;;23.04;31.73
58769;BME280;44536;47.474;19.056;2023-04-20T11:19:49;100371.84;;;24.00;32.17
58769;BME280;44536;47.474;19.056;2023-04-20T11:22:56;100376.69;;;26.08;28.17
58769;BME280;44536;47.474;19.056;2023-04-20T11:26:08;100378.78;;;27.44;27.29
58769;BME280;44536;47.474;19.056;2023-04-20T11:29:10;100371.41;;;29.41;24.38
58769;BME280;44536;47.474;19.056;2023-04-20T11:32:16;100372.44;;;30.15;22.28
58769;BME280;44536;47.474;19.056;2023-04-20T11:35:34;100373.84;;;28.60;23.76
58769;BME280;44536;47.474;19.056;2023-04-20T11:38:37;100374.09;;;27.51;24.78
58769;BME280;44536;47.474;19.056;2023-04-20T11:41:39;100365.97;;;27.81;24.28
58769;BME280;44536;47.474;19.056;2023-04-20T11:44:46;100364.53;;;27.96;23.89
58769;BME280;44536;47.474;19.056;2023-04-20T11:47:49;100358.38;;;29.31;22.81
58769;BME280;44536;47.474;19.056;2023-04-20T11:50:52;100356.97;;;28.10;23.77
58769;BME280;44536;47.474;19.056;2023-04-20T11:53:57;100364.62;;;27.35;25.66
58769;BME280;44536;47.474;19.056;2023-04-20T11:57:00;100361.59;;;27.80;23.87
58769;BME280;44536;47.474;19.056;2023-04-20T12:00:04;100350.66;;;29.80;22.04
58769;BME280;44536;47.474;19.056;2023-04-20T12:03:14;100355.06;;;30.66;21.22
58769;BME280;44536;47.474;19.056;2023-04-20T12:06:17;100358.78;;;30.60;20.96
58769;BME280;44536;47.474;19.056;2023-04-20T12:09:19;100342.84;;;29.72;22.91
58769;BME280;44536;47.474;19.056;2023-04-20T12:12:22;100354.72;;;27.41;24.22
58769;BME280;44536;47.474;19.056;2023-04-20T12:15:26;100347.12;;;26.25;24.75
58769;BME280;44536;47.474;19.056;2023-04-20T12:18:28;100348.47;;;25.71;25.05
58769;BME280;44536;47.474;19.056;2023-04-20T12:21:30;100336.47;;;25.92;25.12
58769;BME280;44536;47.474;19.056;2023-04-20T12:24:34;100338.97;;;26.81;24.62
58769;BME280;44536;47.474;19.056;2023-04-20T12:27:36;100348.13;;;27.85;22.25
58769;BME280;44536;47.474;19.056;2023-04-20T12:30:39;100342.97;;;28.90;20.55
58769;BME280;44536;47.474;19.056;2023-04-20T12:33:41;100328.22;;;29.26;20.68
58769;BME280;44536;47.474;19.056;2023-04-20T12:36:44;100321.84;;;28.97;20.52
58769;BME280;44536;47.474;19.056;2023-04-20T12:39:46;100332.94;;;28.49;22.70
58769;BME280;44536;47.474;19.056;2023-04-20T12:42:49;100323.47;;;29.21;20.58
58769;BME280;44536;47.474;19.056;2023-04-20T12:45:51;100322.66;;;28.86;21.96
58769;BME280;44536;47.474;19.056;2023-04-20T12:48:54;100318.53;;;28.95;22.48
58769;BME280;44536;47.474;19.056;2023-04-20T12:51:57;100331.72;;;28.33;21.91
58769;BME280;44536;47.474;19.056;2023-04-20T12:54:59;100324.06;;;28.77;21.54
58769;BME280;44536;47.474;19.056;2023-04-20T12:58:02;100321.72;;;27.12;24.39
58769;BME280;44536;47.474;19.056;2023-04-20T13:01:05;100315.22;;;27.50;22.78
58769;BME280;44536;47.474;19.056;2023-04-20T13:04:07;100310.00;;;27.48;23.02
58769;BME280;44536;47.474;19.056;2023-04-20T13:07:10;100311.13;;;28.19;22.13
58769;BME280;44536;47.474;19.056;2023-04-20T13:10:13;100311.13;;;27.77;22.73
58769;BME280;44536;47.474;19.056;2023-04-20T13:13:15;100297.91;;;27.92;21.73
58769;BME280;44536;47.474;19.056;2023-04-20T13:16:17;100306.06;;;27.44;22.13
58769;BME280;44536;47.474;19.056;2023-04-20T13:19:20;100305.69;;;27.04;23.12
58769;BME280;44536;47.474;19.056;2023-04-20T13:22:22;100297.00;;;26.70;22.16
58769;BME280;44536;47.474;19.056;2023-04-20T13:25:25;100297.69;;;26.03;24.50
58769;BME280;44536;47.474;19.056;2023-04-20T13:28:28;100303.84;;;26.23;24.45
58769;BME280;44536;47.474;19.056;2023-04-20T13:31:32;100297.50;;;25.66;26.04
58769;BME280;44536;47.474;19.056;2023-04-20T13:34:34;100301.28;;;24.88;25.38
58769;BME280;44536;47.474;19.056;2023-04-20T13:37:38;100301.84;;;23.36;27.01
58769;BME280;44536;47.474;19.056;2023-04-20T13:40:41;100299.62;;;22.56;27.95
58769;BME280;44536;47.474;19.056;2023-04-20T13:43:43;100296.59;;;22.17;28.49
58769;BME280;44536;47.474;19.056;2023-04-20T13:46:46;100302.78;;;21.96;29.10
58769;BME280;44536;47.474;19.056;2023-04-20T13:49:49;100292.00;;;21.96;29.50
58769;BME280;44536;47.474;19.056;2023-04-20T13:52:51;100294.84;;;22.30;29.46
58769;BME280;44536;47.474;19.056;2023-04-20T13:55:54;100284.81;;;22.73;29.53
58769;BME280;44536;47.474;19.056;2023-04-20T13:58:56;100277.84;;;22.86;28.21
58769;BME280;44536;47.474;19.056;2023-04-20T14:01:59;100282.06;;;23.01;28.37
58769;BME280;44536;47.474;19.056;2023-04-20T14:05:04;100278.41;;;21.89;28.24
58769;BME280;44536;47.474;19.056;2023-04-20T14:08:07;100267.63;;;21.68;28.97
58769;BME280;44536;47.474;19.056;2023-04-20T14:11:09;100273.41;;;21.86;30.18
58769;BME280;44536;47.474;19.056;2023-04-20T14:14:12;100269.22;;;22.48;28.95
58769;BME280;44536;47.474;19.056;2023-04-20T14:17:14;100258.31;;;22.34;29.17
58769;BME280;44536;47.474;19.056;2023-04-20T14:20:16;100265.13;;;21.66;29.44
58769;BME280;44536;47.474;19.056;2023-04-20T14:23:19;100269.28;;;21.69;30.04
58769;BME280;44536;47.474;19.056;2023-04-20T14:26:21;100259.72;;;21.01;31.35
58769;BME280;44536;47.474;19.056;2023-04-20T14:29:24;100257.75;;;20.95;32.63
58769;BME280;44536;47.474;19.056;2023-04-20T14:32:29;100254.69;;;21.27;31.28
58769;BME280;44536;47.474;19.056;2023-04-20T14:35:35;100250.87;;;21.07;29.99
58769;BME280;44536;47.474;19.056;2023-04-20T14:38:38;100246.66;;;21.34;29.75
58769;BME280;44536;47.474;19.056;2023-04-20T14:41:40;100247.97;;;21.38;30.40
58769;BME280;44536;47.474;19.056;2023-04-20T14:44:42;100252.56;;;21.59;31.68
58769;BME280;44536;47.474;19.056;2023-04-20T14:47:45;100253.25;;;21.46;29.46
58769;BME280;44536;47.474;19.056;2023-04-20T14:50:47;100246.59;;;21.12;30.68
58769;BME280;44536;47.474;19.056;2023-04-20T14:53:49;100249.75;;;20.87;30.34
58769;BME280;44536;47.474;19.056;2023-04-20T14:56:52;100251.34;;;20.96;30.91
58769;BME280;44536;47.474;19.056;2023-04-20T14:59:54;100239.94;;;20.79;30.73
58769;BME280;44536;47.474;19.056;2023-04-20T15:02:56;100233.78;;;20.85;30.78
58769;BME280;44536;47.474;19.056;2023-04-20T15:06:01;100231.00;;;20.78;31.68
58769;BME280;44536;47.474;19.056;2023-04-20T15:09:04;100232.41;;;20.74;30.76
58769;BME280;44536;47.474;19.056;2023-04-20T15:12:07;100232.88;;;20.78;31.39
58769;BME280;44536;47.474;19.056;2023-04-20T15:15:09;100228.03;;;20.36;31.41
58769;BME280;44536;47.474;19.056;2023-04-20T15:18:12;100234.44;;;20.20;31.61
58769;BME280;44536;47.474;19.056;2023-04-20T15:21:14;100239.94;;;20.79;31.41
58769;BME280;44536;47.474;19.056;2023-04-20T15:24:16;100231.75;;;20.72;31.25
58769;BME280;44536;47.474;19.056;2023-04-20T15:27:19;100233.50;;;20.65;31.01
58769;BME280;44536;47.474;19.056;2023-04-20T15:30:22;100241.47;;;21.03;31.21
58769;BME280;44536;47.474;19.056;2023-04-20T15:33:24;100232.47;;;21.25;30.92
58769;BME280;44536;47.474;19.056;2023-04-20T15:36:27;100245.41;;;21.30;30.94
58769;BME280;44536;47.474;19.056;2023-04-20T15:39:32;100247.72;;;21.03;31.89
58769;BME280;44536;47.474;19.056;2023-04-20T15:42:35;100245.56;;;21.13;32.43
58769;BME280;44536;47.474;19.056;2023-04-20T15:45:37;100239.63;;;21.03;32.10